createdAt,value
2018-11-20T00:01:55.119Z,96361.90
2018-11-20T00:04:43.108Z,96352.98
2018-11-20T00:07:26.741Z,96373.56
2018-11-20T00:10:29.704Z,96371.42
2018-11-20T00:13:09.211Z,96361.64
2018-11-20T00:15:56.483Z,96358.14
2018-11-20T00:18:53.540Z,96358.89
2018-11-20T00:21:44.248Z,96355.44
2018-11-20T00:24:22.747Z,96351.24
2018-11-20T00:27:16.502Z,96357.31
2018-11-20T00:30:08.139Z,96354.52
2018-11-20T00:33:11.085Z,96352.95
2018-11-20T00:35:57.296Z,96359.15
2018-11-20T00:38:48.229Z,96361.33
2018-11-20T00:41:37.606Z,96360.33
2018-11-20T00:44:25.641Z,96360.59
2018-11-20T00:47:12.249Z,96349.10
2018-11-20T00:50:06.154Z,96356.48
2018-11-20T00:52:51.822Z,96356.48
2018-11-20T00:59:22.268Z,96355.26
2018-11-20T01:02:16.008Z,96346.78
2018-11-20T01:05:03.697Z,96345.61
2018-11-20T01:07:53.832Z,96335.34
2018-11-20T01:10:41.866Z,96335.81
2018-11-20T01:13:28.360Z,96330.67
2018-11-20T01:16:16.356Z,96327.78
2018-11-20T01:19:04.368Z,96327.39
2018-11-20T01:21:51.143Z,96325.86
2018-11-20T01:24:37.746Z,96323.33
2018-11-20T01:27:24.448Z,96328.22
2018-11-20T01:30:10.902Z,96328.70
2018-11-20T01:32:49.580Z,96322.72
2018-11-20T01:35:36.028Z,96324.03
2018-11-20T01:38:13.505Z,96321.89
2018-11-20T01:40:59.974Z,96313.34
2018-11-20T01:43:53.954Z,96314.86
2018-11-20T01:46:32.540Z,96311.63
2018-11-20T01:49:22.296Z,96310.28
2018-11-20T01:52:08.899Z,96313.69
2018-11-20T01:54:55.381Z,96306.39
2018-11-20T01:57:42.263Z,96305.82
2018-11-20T02:00:28.851Z,96295.47
2018-11-20T02:03:13.751Z,96288.58
2018-11-20T02:06:00.152Z,96289.48
2018-11-20T02:08:38.933Z,96276.66
2018-11-20T02:11:25.583Z,96280.75
2018-11-20T02:14:14.585Z,96287.48
2018-11-20T02:17:00.768Z,96293.95
2018-11-20T02:20:07.014Z,96292.90
2018-11-20T02:22:49.800Z,96291.72
2018-11-20T02:25:40.382Z,96289.80
2018-11-20T02:28:26.874Z,96269.19
2018-11-20T02:31:22.180Z,96270.10
2018-11-20T02:34:02.923Z,96261.46
2018-11-20T02:36:49.473Z,96259.45
2018-11-20T02:39:37.497Z,96259.41
2018-11-20T02:42:18.603Z,96253.81
2018-11-20T02:44:58.303Z,96241.25
2018-11-20T02:47:42.632Z,96244.61
2018-11-20T02:50:42.599Z,96245.52
2018-11-20T02:53:42.317Z,96240.90
2018-11-20T02:56:30.320Z,96240.08
2018-11-20T02:59:25.455Z,96231.22
2018-11-20T03:02:07.405Z,96231.20
2018-11-20T03:04:48.171Z,96233.66
2018-11-20T03:07:34.918Z,96231.06
2018-11-20T03:10:25.796Z,96225.95
2018-11-20T03:13:12.976Z,96232.50
2018-11-20T03:15:59.370Z,96219.63
2018-11-20T03:19:02.066Z,96214.52
2018-11-20T03:21:51.848Z,96223.34
2018-11-20T03:24:51.753Z,96218.09
2018-11-20T03:27:42.641Z,96215.55
2018-11-20T03:31:18.823Z,96201.09
2018-11-20T03:34:03.456Z,96202.03
2018-11-20T03:36:44.473Z,96191.81
2018-11-20T03:39:38.595Z,96194.25
2018-11-20T03:42:25.128Z,96195.83
2018-11-20T03:45:12.052Z,96195.16
2018-11-20T03:48:02.957Z,96182.53
2018-11-20T03:50:49.246Z,96192.94
2018-11-20T03:53:52.167Z,96190.86
2018-11-20T03:56:38.656Z,96199.83
2018-11-20T03:59:29.464Z,96207.42
2018-11-20T04:02:23.211Z,96204.45
2018-11-20T04:05:29.203Z,96208.04
2018-11-20T04:08:28.917Z,96205.42
2018-11-20T04:11:15.299Z,96208.39
2018-11-20T04:14:18.251Z,96206.66
2018-11-20T04:17:04.902Z,96214.44
2018-11-20T04:19:41.919Z,96202.98
2018-11-20T04:22:25.590Z,96202.32
2018-11-20T04:25:25.570Z,96214.86
2018-11-20T04:31:41.975Z,96202.45
2018-11-20T04:34:28.628Z,96201.70
2018-11-20T04:37:24.492Z,96190.80
2018-11-20T04:40:12.848Z,96175.08
2018-11-20T04:43:15.648Z,96169.48
2018-11-20T04:46:04.597Z,96175.02
2018-11-20T04:48:58.804Z,96166.25
2018-11-20T04:51:52.460Z,96170.53
2018-11-20T04:54:39.052Z,96173.36
2018-11-20T04:57:38.106Z,96173.77
2018-11-20T05:00:34.675Z,96169.41
2018-11-20T05:03:25.673Z,96172.32
2018-11-20T05:06:03.752Z,96173.63
2018-11-20T05:08:50.472Z,96177.91
2018-11-20T05:11:37.137Z,96172.53
2018-11-20T05:14:28.553Z,96169.48
2018-11-20T05:17:19.409Z,96167.98
2018-11-20T05:20:17.685Z,96175.56
2018-11-20T05:23:04.038Z,96176.95
2018-11-20T05:26:09.994Z,96164.25
2018-11-20T05:28:57.977Z,96162.19
2018-11-20T05:32:01.197Z,96168.26
2018-11-20T05:38:31.533Z,96155.71
2018-11-20T05:41:11.232Z,96154.19
2018-11-20T05:43:59.175Z,96155.22
2018-11-20T05:46:46.100Z,96151.70
2018-11-20T05:49:36.440Z,96148.39
2018-11-20T05:52:23.139Z,96147.36
2018-11-20T05:55:11.169Z,96140.53
2018-11-20T05:57:52.564Z,96145.08
2018-11-20T06:00:39.392Z,96140.73
2018-11-20T06:03:30.442Z,96135.84
2018-11-20T06:06:29.052Z,96132.88
2018-11-20T06:09:15.708Z,96132.73
2018-11-20T06:12:02.278Z,96130.27
2018-11-20T06:14:48.558Z,96126.74
2018-11-20T06:17:35.058Z,96129.15
2018-11-20T06:20:21.735Z,96132.53
2018-11-20T06:23:01.836Z,96133.02
2018-11-20T06:25:51.683Z,96134.25
2018-11-20T06:28:38.223Z,96131.91
2018-11-20T06:31:24.586Z,96128.39
2018-11-20T06:34:02.170Z,96129.50
2018-11-20T06:37:05.279Z,96129.70
2018-11-20T06:39:53.302Z,96135.02
2018-11-20T06:42:56.359Z,96138.47
2018-11-20T06:45:52.933Z,96126.13
2018-11-20T06:48:55.512Z,96130.34
2018-11-20T06:51:49.466Z,96124.89
2018-11-20T06:54:34.962Z,96127.85
2018-11-20T06:57:27.367Z,96132.69
2018-11-20T07:00:13.941Z,96139.91
2018-11-20T07:03:16.918Z,96143.77
2018-11-20T07:06:13.864Z,96154.73
2018-11-20T07:09:00.240Z,96160.80
2018-11-20T07:11:56.980Z,96166.47
2018-11-20T07:14:54.055Z,96167.63
2018-11-20T07:17:46.508Z,96158.05
2018-11-20T07:20:32.999Z,96171.28
2018-11-20T07:23:08.381Z,96160.13
2018-11-20T07:25:56.529Z,96167.77
2018-11-20T07:28:41.813Z,96153.78
2018-11-20T07:31:28.327Z,96152.61
2018-11-20T07:34:16.311Z,96158.45
2018-11-20T07:36:59.523Z,96157.70
2018-11-20T07:39:56.318Z,96163.16
2018-11-20T07:42:47.224Z,96159.01
2018-11-20T07:45:33.685Z,96163.16
2018-11-20T07:48:20.101Z,96151.44
2018-11-20T07:51:23.044Z,96150.62
2018-11-20T07:54:14.643Z,96153.78
2018-11-20T07:57:14.583Z,96149.50
2018-11-20T08:00:08.005Z,96159.23
2018-11-20T08:02:51.895Z,96164.27
2018-11-20T08:05:40.958Z,96163.72
2018-11-20T08:08:29.043Z,96166.83
2018-11-20T08:11:31.839Z,96167.38
2018-11-20T08:14:22.651Z,96174.34
2018-11-20T08:17:02.313Z,96177.58
2018-11-20T08:19:43.477Z,96171.30
2018-11-20T08:22:26.336Z,96171.52
2018-11-20T08:25:17.611Z,96165.72
2018-11-20T08:28:04.064Z,96169.92
2018-11-20T08:30:42.535Z,96168.27
2018-11-20T08:33:48.768Z,96178.27
2018-11-20T08:36:23.664Z,96180.27
2018-11-20T08:39:16.601Z,96184.07
2018-11-20T08:42:03.025Z,96178.75
2018-11-20T08:45:08.721Z,96185.45
2018-11-20T08:47:49.302Z,96182.14
2018-11-20T08:50:40.281Z,96177.32
2018-11-20T08:53:27.001Z,96173.11
2018-11-20T08:56:04.806Z,96166.77
2018-11-20T08:58:44.703Z,96167.38
2018-11-20T09:01:36.450Z,96166.14
2018-11-20T09:04:32.306Z,96171.73
2018-11-20T09:07:26.060Z,96165.80
2018-11-20T09:10:15.125Z,96173.25
2018-11-20T09:13:12.124Z,96176.56
2018-11-20T09:16:02.992Z,96180.02
2018-11-20T09:18:51.079Z,96172.29
2018-11-20T09:21:48.335Z,96180.77
2018-11-20T09:24:47.927Z,96190.70
2018-11-20T09:27:35.936Z,96183.59
2018-11-20T09:30:27.079Z,96191.39
2018-11-20T09:33:15.090Z,96187.12
2018-11-20T09:36:27.652Z,96177.53
2018-11-20T09:39:09.532Z,96185.13
2018-11-20T09:41:56.277Z,96181.09
2018-11-20T09:44:41.468Z,96177.16
2018-11-20T09:47:27.754Z,96162.13
2018-11-20T09:50:14.621Z,96152.59
2018-11-20T09:52:57.971Z,96150.19
2018-11-20T09:55:48.972Z,96147.42
2018-11-20T09:58:51.992Z,96134.59
2018-11-20T10:01:40.101Z,96129.20
2018-11-20T10:04:40.105Z,96123.48
2018-11-20T10:07:40.167Z,96133.34
2018-11-20T10:10:27.129Z,96141.97
2018-11-20T10:13:02.033Z,96137.34
2018-11-20T10:15:47.789Z,96130.85
2018-11-20T10:18:34.446Z,96132.72
2018-11-20T10:21:22.752Z,96134.99
2018-11-20T10:24:10.670Z,96127.19
2018-11-20T10:27:07.195Z,96135.95
2018-11-20T10:30:13.223Z,96117.45
2018-11-20T10:32:59.875Z,96108.19
2018-11-20T10:35:47.846Z,96100.66
2018-11-20T10:38:32.628Z,96086.97
2018-11-20T10:41:13.183Z,96086.83
2018-11-20T10:44:00.189Z,96087.03
2018-11-20T10:46:42.139Z,96093.73
2018-11-20T10:49:28.412Z,96081.84
2018-11-20T10:52:16.394Z,96080.23
2018-11-20T10:55:10.462Z,96075.55
2018-11-20T10:57:49.446Z,96089.08
2018-11-20T11:00:36.088Z,96072.94
2018-11-20T11:03:22.375Z,96074.73
2018-11-20T11:06:09.396Z,96063.00
2018-11-20T11:08:56.034Z,96054.42
2018-11-20T11:11:42.869Z,96054.47
2018-11-20T11:14:29.840Z,96058.05
2018-11-20T11:17:20.447Z,96057.44
2018-11-20T11:20:07.045Z,96066.91
2018-11-20T11:22:55.680Z,96052.18
2018-11-20T11:25:45.227Z,96058.52
2018-11-20T11:28:31.752Z,96061.73
2018-11-20T11:31:18.044Z,96070.17
2018-11-20T11:34:05.763Z,96064.34
2018-11-20T11:36:52.177Z,96057.11
2018-11-20T11:39:49.268Z,96064.57
2018-11-20T11:42:38.477Z,96070.38
2018-11-20T11:45:21.430Z,96066.92
2018-11-20T11:48:12.439Z,96073.02
2018-11-20T11:51:06.451Z,96067.48
2018-11-20T11:53:57.129Z,96074.09
2018-11-20T11:56:53.161Z,96079.56
2018-11-20T11:59:41.323Z,96077.94
2018-11-20T12:05:32.863Z,96086.61
2018-11-20T12:08:20.845Z,96080.88
2018-11-20T12:11:22.774Z,96071.22
2018-11-20T12:14:22.565Z,96067.29
2018-11-20T12:17:06.573Z,96068.45
2018-11-20T12:19:53.286Z,96068.64
2018-11-20T12:22:40.059Z,96063.23
2018-11-20T12:25:22.328Z,96062.92
2018-11-20T12:28:25.007Z,96061.92
2018-11-20T12:31:15.808Z,96053.53
2018-11-20T12:34:00.161Z,96051.90
2018-11-20T12:36:48.805Z,96051.90
2018-11-20T12:39:40.680Z,96052.56
2018-11-20T12:42:24.812Z,96057.67
2018-11-20T12:45:27.813Z,96041.70
2018-11-20T12:48:11.746Z,96044.50
2018-11-20T12:50:59.729Z,96050.78
2018-11-20T12:53:57.780Z,96052.41
2018-11-20T12:56:42.033Z,96051.93
2018-11-20T12:59:26.876Z,96040.08
2018-11-20T13:02:15.180Z,96049.13
2018-11-20T13:05:18.093Z,96051.61
2018-11-20T13:08:04.546Z,96050.30
2018-11-20T13:11:10.497Z,96051.28
2018-11-20T13:14:13.384Z,96051.94
2018-11-20T13:17:09.241Z,96050.13
2018-11-20T13:20:00.471Z,96055.73
2018-11-20T13:22:44.791Z,96062.83
2018-11-20T13:25:41.453Z,96067.26
2018-11-20T13:28:35.584Z,96064.48
2018-11-20T13:31:16.104Z,96078.63
2018-11-20T13:34:25.097Z,96079.12
2018-11-20T13:37:09.922Z,96079.77
2018-11-20T13:40:11.585Z,96084.20
2018-11-20T13:42:59.871Z,96085.18
2018-11-20T13:45:46.132Z,96092.44
2018-11-20T13:48:33.306Z,96097.37
2018-11-20T13:51:25.094Z,96093.77
2018-11-20T13:54:02.349Z,96102.67
2018-11-20T13:56:44.750Z,96110.27
2018-11-20T13:59:31.084Z,96112.41
2018-11-20T14:02:28.325Z,96111.42
2018-11-20T14:05:15.216Z,96113.23
2018-11-20T14:08:18.656Z,96111.72
2018-11-20T14:10:56.745Z,96118.17
2018-11-20T14:13:53.518Z,96114.44
2018-11-20T14:16:46.771Z,96111.81
2018-11-20T14:19:30.005Z,96120.55
2018-11-20T14:22:07.347Z,96125.34
2018-11-20T14:24:53.924Z,96126.52
2018-11-20T14:27:53.670Z,96130.48
2018-11-20T14:30:56.690Z,96132.47
2018-11-20T14:34:02.523Z,96132.80
2018-11-20T14:36:39.501Z,96132.33
2018-11-20T14:39:24.371Z,96141.41
2018-11-20T14:42:12.562Z,96143.06
2018-11-20T14:44:53.298Z,96144.55
2018-11-20T14:47:42.381Z,96148.34
2018-11-20T14:50:28.863Z,96154.95
2018-11-20T14:53:13.772Z,96157.42
2018-11-20T14:56:04.608Z,96163.84
2018-11-20T14:58:52.704Z,96161.39
2018-11-20T15:01:40.642Z,96159.24
2018-11-20T15:04:28.670Z,96170.78
2018-11-20T15:07:15.344Z,96172.06
2018-11-20T15:10:12.351Z,96177.96
2018-11-20T15:13:00.763Z,96177.92
2018-11-20T15:16:06.875Z,96176.55
2018-11-20T15:19:06.816Z,96179.09
2018-11-20T15:22:01.830Z,96174.09
2018-11-20T15:24:58.429Z,96180.61
2018-11-20T15:27:47.636Z,96174.77
2018-11-20T15:30:35.609Z,96183.31
2018-11-20T15:33:41.774Z,96184.14
2018-11-20T15:36:20.555Z,96186.53
2018-11-20T15:39:17.857Z,96195.46
2018-11-20T15:42:23.980Z,96191.83
2018-11-20T15:45:10.485Z,96204.60
2018-11-20T15:48:10.637Z,96214.97
2018-11-20T15:51:07.512Z,96224.39
2018-11-20T15:53:54.134Z,96222.27
2018-11-20T15:56:42.140Z,96230.98
2018-11-20T15:59:28.387Z,96235.61
2018-11-20T16:02:16.200Z,96241.44
2018-11-20T16:05:04.252Z,96243.51
2018-11-20T16:07:58.611Z,96260.91
2018-11-20T16:10:45.410Z,96256.05
2018-11-20T16:13:24.847Z,96261.88
2018-11-20T16:16:11.083Z,96260.78
2018-11-20T16:19:07.745Z,96267.70
2018-11-20T16:21:55.042Z,96271.64
2018-11-20T16:24:38.342Z,96272.47
2018-11-20T16:27:35.409Z,96269.56
2018-11-20T16:30:33.514Z,96277.12
2018-11-20T16:33:11.085Z,96276.70
2018-11-20T16:36:02.986Z,96282.78
2018-11-20T16:38:47.531Z,96281.84
2018-11-20T16:41:33.769Z,96283.64
2018-11-20T16:44:21.766Z,96289.10
2018-11-20T16:47:09.745Z,96308.99
2018-11-20T16:50:00.726Z,96294.48
2018-11-20T16:52:56.796Z,96305.30
2018-11-20T16:56:02.847Z,96308.55
2018-11-20T16:58:50.792Z,96305.78
2018-11-20T17:01:45.762Z,96304.53
2018-11-20T17:04:41.103Z,96300.80
2018-11-20T17:07:29.077Z,96308.41
2018-11-20T17:10:15.765Z,96322.02
2018-11-20T17:12:56.969Z,96313.14
2018-11-20T17:15:43.598Z,96323.77
2018-11-20T17:18:26.615Z,96331.58
2018-11-20T17:21:12.961Z,96342.31
2018-11-20T17:24:15.641Z,96342.37
2018-11-20T17:27:04.363Z,96354.17
2018-11-20T17:29:52.429Z,96355.54
2018-11-20T17:32:38.727Z,96365.69
2018-11-20T17:35:25.674Z,96374.17
2018-11-20T17:38:12.578Z,96376.93
2018-11-20T17:41:03.728Z,96375.19
2018-11-20T17:44:03.562Z,96381.19
2018-11-20T17:46:54.713Z,96381.19
2018-11-20T17:49:36.289Z,96389.69
2018-11-20T17:52:21.304Z,96379.27
2018-11-20T17:55:11.626Z,96384.59
2018-11-20T17:57:57.065Z,96394.83
2018-11-20T18:00:38.023Z,96397.55
2018-11-20T18:03:26.035Z,96402.40
2018-11-20T18:06:26.205Z,96408.22
2018-11-20T18:09:13.027Z,96414.32
2018-11-20T18:11:59.839Z,96418.78
2018-11-20T18:14:56.410Z,96425.77
2018-11-20T18:17:50.623Z,96425.47
2018-11-20T18:20:50.689Z,96421.67
2018-11-20T18:23:37.446Z,96415.85
2018-11-20T18:26:43.460Z,96424.53
2018-11-20T18:29:27.505Z,96422.92
2018-11-20T18:32:14.272Z,96414.80
2018-11-20T18:34:54.387Z,96417.13
2018-11-20T18:37:42.754Z,96419.27
2018-11-20T18:40:29.166Z,96429.18
2018-11-20T18:43:29.484Z,96426.59
2018-11-20T18:46:26.601Z,96426.31
2018-11-20T18:49:26.683Z,96435.23
2018-11-20T18:52:13.267Z,96432.75
2018-11-20T18:55:08.465Z,96439.52
2018-11-20T18:58:02.089Z,96438.74
2018-11-20T19:00:59.487Z,96446.39
2018-11-20T19:03:47.756Z,96452.66
2018-11-20T19:06:41.542Z,96450.61
2018-11-20T19:09:28.032Z,96454.41
2018-11-20T19:12:30.862Z,96452.75
2018-11-20T19:15:36.880Z,96458.19
2018-11-20T19:18:24.076Z,96460.12
2018-11-20T19:21:04.358Z,96457.07
2018-11-20T19:23:50.947Z,96450.14
2018-11-20T19:26:37.932Z,96457.20
2018-11-20T19:29:14.506Z,96461.83
2018-11-20T19:32:01.162Z,96462.47
2018-11-20T19:34:49.214Z,96457.70
2018-11-20T19:40:42.872Z,96474.42
2018-11-20T19:43:29.486Z,96492.03
2018-11-20T19:46:20.611Z,96489.19
2018-11-20T19:49:07.629Z,96499.08
2018-11-20T19:52:00.832Z,96506.03
2018-11-20T19:54:44.491Z,96515.14
2018-11-20T19:57:42.870Z,96512.72
2018-11-20T20:00:46.582Z,96526.30
2018-11-20T20:03:29.837Z,96530.68
2018-11-20T20:06:24.019Z,96532.47
2018-11-20T20:09:29.988Z,96536.47
2018-11-20T20:12:19.357Z,96531.89
2018-11-20T20:15:05.794Z,96533.81
2018-11-20T20:17:52.297Z,96533.56
2018-11-20T20:20:38.631Z,96537.30
2018-11-20T20:23:25.116Z,96545.10
2018-11-20T20:26:24.497Z,96556.35
2018-11-20T20:29:24.663Z,96565.42
2018-11-20T20:32:11.222Z,96572.30
2018-11-20T20:34:59.257Z,96570.23
2018-11-20T20:37:49.894Z,96575.31
2018-11-20T20:40:36.340Z,96575.17
2018-11-20T20:43:17.387Z,96579.56
2018-11-20T20:46:17.451Z,96580.88
2018-11-20T20:49:09.593Z,96584.83
2018-11-20T20:52:12.678Z,96587.25
2018-11-20T20:54:59.152Z,96582.53
2018-11-20T20:57:45.563Z,96584.34
2018-11-20T21:00:33.978Z,96575.80
2018-11-20T21:03:24.741Z,96570.98
2018-11-20T21:06:15.659Z,96579.61
2018-11-20T21:09:03.698Z,96588.05
2018-11-20T21:11:57.638Z,96587.83
2018-11-20T21:14:45.689Z,96597.65
2018-11-20T21:17:29.287Z,96600.31
2018-11-20T21:20:16.067Z,96596.27
2018-11-20T21:23:13.370Z,96598.21
2018-11-20T21:26:07.439Z,96594.63
2018-11-20T21:28:58.200Z,96592.95
2018-11-20T21:31:46.223Z,96594.39
2018-11-20T21:34:25.936Z,96598.83
2018-11-20T21:37:29.082Z,96605.36
2018-11-20T21:40:15.511Z,96608.29
2018-11-20T21:43:01.924Z,96606.52
2018-11-20T21:45:49.790Z,96607.84
2018-11-20T21:48:37.837Z,96608.45
2018-11-20T21:51:28.809Z,96609.44
2018-11-20T21:54:25.965Z,96613.83
2018-11-20T21:57:12.613Z,96612.33
2018-11-20T22:00:09.628Z,96607.34
2018-11-20T22:03:10.835Z,96620.30
2018-11-20T22:05:57.438Z,96624.70
2018-11-20T22:08:49.868Z,96625.43
2018-11-20T22:11:38.903Z,96631.80
2018-11-20T22:14:35.965Z,96632.62
2018-11-20T22:17:22.405Z,96636.80
2018-11-20T22:20:22.506Z,96640.43
2018-11-20T22:23:08.810Z,96636.61
2018-11-20T22:26:00.958Z,96636.61
2018-11-20T22:29:00.681Z,96640.02
2018-11-20T22:31:51.559Z,96635.42
2018-11-20T22:34:34.682Z,96634.47
2018-11-20T22:37:15.334Z,96634.88
2018-11-20T22:40:03.378Z,96633.07
2018-11-20T22:42:51.841Z,96636.78
2018-11-20T22:45:38.271Z,96627.72
2018-11-20T22:48:24.941Z,96635.23
2018-11-20T22:51:03.449Z,96640.00
2018-11-20T22:53:42.708Z,96635.22
2018-11-20T22:56:27.701Z,96640.24
2018-11-20T22:59:33.673Z,96640.94
2018-11-20T23:02:20.301Z,96638.28
2018-11-20T23:05:12.864Z,96641.86
2018-11-20T23:08:06.776Z,96644.03
2018-11-20T23:10:35.682Z,96639.27
2018-11-20T23:13:04.704Z,96646.41
2018-11-20T23:15:33.621Z,96655.59
2018-11-20T23:18:02.569Z,96654.50
2018-11-20T23:20:31.578Z,96662.82
2018-11-20T23:23:00.509Z,96663.32
2018-11-20T23:25:29.545Z,96663.44
2018-11-20T23:27:58.423Z,96658.70
2018-11-20T23:30:27.315Z,96667.98
2018-11-20T23:32:56.371Z,96663.47
2018-11-20T23:35:25.275Z,96676.25
2018-11-20T23:37:54.178Z,96675.84
2018-11-20T23:40:23.072Z,96671.56
2018-11-20T23:42:51.945Z,96678.70
2018-11-20T23:45:20.879Z,96675.60
2018-11-20T23:47:49.815Z,96673.81
2018-11-20T23:50:18.749Z,96674.88
2018-11-20T23:52:47.706Z,96667.12
2018-11-20T23:55:16.643Z,96670.81
2018-11-20T23:57:45.536Z,96665.92
